createdAt,value
2023-04-19T03:59:08.381Z,1022.85
2023-04-19T04:00:08.370Z,1022.84
2023-04-19T04:01:08.332Z,1022.82
2023-04-19T04:02:08.398Z,1022.89
2023-04-19T04:03:08.461Z,1022.87
2023-04-19T04:04:08.411Z,1022.88
2023-04-19T04:05:08.460Z,1022.88
2023-04-19T04:06:08.288Z,1022.88
2023-04-19T04:07:08.281Z,1022.91
2023-04-19T04:08:08.296Z,1022.93
2023-04-19T04:09:08.320Z,1022.93
2023-04-19T04:10:08.264Z,1022.89
2023-04-19T04:11:08.252Z,1022.91
2023-04-19T04:12:08.250Z,1022.92
2023-04-19T04:13:08.249Z,1022.91
2023-04-19T04:14:08.274Z,1022.93
2023-04-19T04:15:08.409Z,1022.95
2023-04-19T04:16:08.262Z,1022.95
2023-04-19T04:17:08.222Z,1022.95
2023-04-19T04:18:09.239Z,1022.91
2023-04-19T04:19:08.246Z,1022.90
2023-04-19T04:20:08.207Z,1022.96
2023-04-19T04:21:08.230Z,1022.95
2023-04-19T04:22:08.204Z,1022.95
2023-04-19T04:23:08.199Z,1022.93
2023-04-19T04:24:08.201Z,1022.93
2023-04-19T04:25:08.224Z,1022.95
2023-04-19T04:26:08.255Z,1022.94
2023-04-19T04:27:08.215Z,1022.95
2023-04-19T04:28:08.198Z,1022.93
2023-04-19T04:29:08.191Z,1022.96
2023-04-19T04:30:08.181Z,1023.01
2023-04-19T04:31:08.197Z,1022.96
2023-04-19T04:32:08.261Z,1022.99
2023-04-19T04:33:08.186Z,1022.99
2023-04-19T04:34:08.160Z,1022.95
2023-04-19T04:35:08.168Z,1022.97
2023-04-19T04:36:09.829Z,1022.99
2023-04-19T04:37:08.151Z,1022.96
2023-04-19T04:38:17.604Z,1022.98
2023-04-19T04:39:08.169Z,1023.00
2023-04-19T04:40:08.213Z,1022.98
2023-04-19T04:41:08.163Z,1022.96
2023-04-19T04:42:08.131Z,1022.98
2023-04-19T04:43:08.142Z,1023.00
2023-04-19T04:44:12.068Z,1022.99
2023-04-19T04:45:08.126Z,1023.01
2023-04-19T04:46:08.166Z,1022.97
2023-04-19T04:47:08.169Z,1022.93
2023-04-19T04:48:08.170Z,1022.95
2023-04-19T04:49:08.106Z,1022.97
2023-04-19T04:50:08.108Z,1022.94
2023-04-19T04:51:08.120Z,1022.96
2023-04-19T04:52:08.123Z,1022.95
2023-04-19T04:53:08.126Z,1022.96
2023-04-19T04:54:08.082Z,1023.01
2023-04-19T04:55:08.086Z,1022.96
2023-04-19T04:56:08.099Z,1023.03
2023-04-19T04:57:08.077Z,1023.03
2023-04-19T04:58:08.094Z,1023.00
2023-04-19T04:59:08.072Z,1023.01
2023-04-19T05:00:08.082Z,1023.01
2023-04-19T05:01:08.191Z,1023.03
2023-04-19T05:02:08.084Z,1023.00
2023-04-19T05:03:08.313Z,1023.04
2023-04-19T05:04:08.073Z,1022.99
2023-04-19T05:05:08.047Z,1023.06
2023-04-19T05:06:08.066Z,1023.01
2023-04-19T05:07:08.054Z,1023.01
2023-04-19T05:08:08.046Z,1023.00
2023-04-19T05:09:08.045Z,1023.02
2023-04-19T05:10:08.054Z,1023.05
2023-04-19T05:11:08.039Z,1023.06
2023-04-19T05:12:08.064Z,1023.02
2023-04-19T05:13:08.025Z,1023.07
2023-04-19T05:14:08.013Z,1023.03
2023-04-19T05:15:08.007Z,1023.05
2023-04-19T05:16:08.019Z,1023.06
2023-04-19T05:17:07.994Z,1023.07
2023-04-19T05:18:07.994Z,1023.07
2023-04-19T05:19:08.009Z,1023.02
2023-04-19T05:20:08.001Z,1023.05
2023-04-19T05:21:08.000Z,1023.03
2023-04-19T05:22:07.990Z,1023.04
2023-04-19T05:23:08.010Z,1023.05
2023-04-19T05:24:07.981Z,1023.02
2023-04-19T05:25:07.985Z,1023.04
2023-04-19T05:26:08.008Z,1023.02
2023-04-19T05:27:07.960Z,1023.02
2023-04-19T05:28:07.969Z,1023.03
2023-04-19T05:29:07.974Z,1023.06
2023-04-19T05:30:08.037Z,1023.06
2023-04-19T05:31:07.978Z,1023.06
2023-04-19T05:32:07.954Z,1023.03
2023-04-19T05:33:08.007Z,1023.02
2023-04-19T05:34:07.984Z,1023.01
2023-04-19T05:35:07.964Z,1023.03
2023-04-19T05:36:07.936Z,1023.04
2023-04-19T05:37:07.926Z,1023.04
2023-04-19T05:38:08.020Z,1023.09
2023-04-19T05:39:07.930Z,1023.05
2023-04-19T05:40:07.920Z,1023.05
2023-04-19T05:41:07.954Z,1023.03
2023-04-19T05:42:07.952Z,1023.03
2023-04-19T05:43:07.921Z,1023.05
2023-04-19T05:44:07.902Z,1023.03
2023-04-19T05:45:08.215Z,1023.04
2023-04-19T05:46:07.933Z,1023.04
2023-04-19T05:47:07.936Z,1023.02
2023-04-19T05:48:07.999Z,1023.05
2023-04-19T05:49:07.907Z,1023.01
2023-04-19T05:50:08.011Z,1022.98
2023-04-19T05:51:07.975Z,1022.97
2023-04-19T05:52:07.969Z,1022.99
2023-04-19T05:53:07.866Z,1022.98
2023-04-19T05:54:07.888Z,1023.03
2023-04-19T05:55:07.930Z,1022.99
2023-04-19T05:56:07.906Z,1022.97
2023-04-19T05:57:07.932Z,1023.02
2023-04-19T05:58:08.533Z,1023.06
2023-04-19T05:59:08.107Z,1023.08
2023-04-19T06:00:07.849Z,1023.04
2023-04-19T06:01:08.536Z,1023.07
2023-04-19T06:02:07.997Z,1023.07
2023-04-19T06:03:08.100Z,1023.04
2023-04-19T06:04:08.112Z,1023.01
2023-04-19T06:05:10.412Z,1023.03
2023-04-19T06:06:07.988Z,1023.09
2023-04-19T06:07:13.479Z,1023.08
2023-04-19T06:08:07.949Z,1023.01
2023-04-19T06:09:07.871Z,1023.02
2023-04-19T06:10:07.817Z,1023.06
2023-04-19T06:11:19.866Z,1023.07
2023-04-19T06:12:07.889Z,1023.03
2023-04-19T06:13:07.882Z,1023.10
2023-04-19T06:14:07.805Z,1023.09
2023-04-19T06:15:07.836Z,1023.06
2023-04-19T06:16:07.827Z,1023.02
2023-04-19T06:17:07.831Z,1023.10
2023-04-19T06:18:07.798Z,1023.10
2023-04-19T06:19:07.806Z,1023.11
2023-04-19T06:20:07.916Z,1023.10
2023-04-19T06:21:07.909Z,1023.11
2023-04-19T06:22:07.818Z,1023.10
2023-04-19T06:23:07.792Z,1023.14
2023-04-19T06:24:07.898Z,1023.10
2023-04-19T06:25:07.799Z,1023.12
2023-04-19T06:26:07.781Z,1023.14
2023-04-19T06:27:07.829Z,1023.05
2023-04-19T06:28:07.771Z,1023.07
2023-04-19T06:29:07.782Z,1023.07
2023-04-19T06:30:07.780Z,1023.10
2023-04-19T06:31:07.790Z,1023.11
2023-04-19T06:32:07.800Z,1023.06
2023-04-19T06:33:07.777Z,1023.09
2023-04-19T06:34:07.804Z,1023.13
2023-04-19T06:35:07.820Z,1023.10
2023-04-19T06:36:07.775Z,1023.12
2023-04-19T06:37:07.792Z,1023.10
2023-04-19T06:38:07.768Z,1023.05
2023-04-19T06:39:07.862Z,1023.04
2023-04-19T06:40:07.759Z,1023.09
2023-04-19T06:41:07.773Z,1023.13
2023-04-19T06:42:07.770Z,1023.15
2023-04-19T06:43:07.743Z,1023.16
2023-04-19T06:44:07.764Z,1023.18
2023-04-19T06:45:07.871Z,1023.17
2023-04-19T06:46:07.861Z,1023.20
2023-04-19T06:47:07.768Z,1023.15
2023-04-19T06:48:07.861Z,1023.08
2023-04-19T06:49:07.726Z,1023.13
2023-04-19T06:50:07.732Z,1023.18
2023-04-19T06:51:07.744Z,1023.13
2023-04-19T06:52:07.757Z,1023.14
2023-04-19T06:53:07.747Z,1023.12
2023-04-19T06:54:07.775Z,1023.08
2023-04-19T06:55:07.834Z,1023.05
2023-04-19T06:58:40.356Z,1023.12
2023-04-19T06:59:40.332Z,1023.13
2023-04-19T07:00:40.330Z,1023.09
2023-04-19T07:01:40.444Z,1023.11
2023-04-19T07:03:40.477Z,1023.14
2023-04-19T07:04:40.449Z,1023.12
2023-04-19T07:05:40.362Z,1023.18
2023-04-19T07:06:40.361Z,1023.15
2023-04-19T07:07:40.313Z,1023.11
2023-04-19T07:08:49.746Z,1023.12
2023-04-19T07:09:40.351Z,1023.10
2023-04-19T07:10:40.413Z,1023.10
2023-04-19T07:11:40.378Z,1023.15
2023-04-19T07:12:40.330Z,1023.07
2023-04-19T07:13:40.353Z,1023.08
2023-04-19T07:14:40.341Z,1023.10
2023-04-19T07:15:40.348Z,1023.10
2023-04-19T07:16:40.307Z,1023.07
2023-04-19T07:17:40.334Z,1023.11
2023-04-19T07:18:40.298Z,1023.05
2023-04-19T07:19:40.289Z,1023.05
2023-04-19T07:20:40.366Z,1023.05
2023-04-19T07:21:40.413Z,1023.05
2023-04-19T07:22:40.379Z,1023.03
2023-04-19T07:23:40.284Z,1023.05
2023-04-19T07:24:40.294Z,1022.98
2023-04-19T07:25:40.277Z,1022.99
2023-04-19T07:26:40.440Z,1022.99
2023-04-19T07:27:40.296Z,1022.95
2023-04-19T07:28:40.313Z,1022.98
2023-04-19T07:29:41.883Z,1023.04
2023-04-19T07:30:40.332Z,1023.00
2023-04-19T07:31:40.334Z,1022.98
2023-04-19T07:32:40.546Z,1023.03
2023-04-19T07:33:40.346Z,1022.96
2023-04-19T07:34:40.464Z,1023.00
2023-04-19T07:35:40.394Z,1022.96
2023-04-19T07:36:40.385Z,1023.02
2023-04-19T07:37:40.346Z,1022.99
2023-04-19T07:38:40.398Z,1022.99
2023-04-19T07:39:40.315Z,1022.96
2023-04-19T07:40:40.334Z,1022.96
2023-04-19T07:41:40.304Z,1022.96
2023-04-19T07:42:40.398Z,1022.98
2023-04-19T07:43:41.164Z,1023.01
2023-04-19T07:44:40.299Z,1022.99
2023-04-19T07:45:40.248Z,1022.97
2023-04-19T07:46:40.377Z,1022.95
2023-04-19T07:47:40.335Z,1022.97
2023-04-19T07:48:40.246Z,1022.93
2023-04-19T07:49:40.368Z,1022.92
2023-04-19T07:50:40.314Z,1022.88
2023-04-19T07:51:40.256Z,1022.89
2023-04-19T07:52:40.286Z,1022.91
2023-04-19T07:53:40.302Z,1022.96
2023-04-19T07:54:40.277Z,1022.91
2023-04-19T07:55:40.325Z,1022.93
2023-04-19T07:56:40.298Z,1022.90
2023-04-19T07:57:40.299Z,1022.94
2023-04-19T07:58:40.253Z,1022.86
2023-04-19T07:59:40.256Z,1022.85
2023-04-19T08:00:40.230Z,1022.90
2023-04-19T08:01:40.401Z,1022.85
2023-04-19T08:02:40.339Z,1022.80
2023-04-19T08:03:40.490Z,1022.84
2023-04-19T08:04:40.532Z,1022.82
2023-04-19T08:05:40.398Z,1022.78
2023-04-19T08:06:40.246Z,1022.74
2023-04-19T08:07:40.218Z,1022.75
2023-04-19T08:08:40.212Z,1022.77
2023-04-19T08:09:40.330Z,1022.79
2023-04-19T08:10:40.228Z,1022.69
2023-04-19T08:11:40.297Z,1022.70
2023-04-19T08:12:47.333Z,1022.68
2023-04-19T08:13:40.520Z,1022.73
2023-04-19T08:14:51.602Z,1022.69
2023-04-19T08:17:06.563Z,1022.71
2023-04-19T08:17:42.324Z,1022.70
2023-04-19T08:18:40.245Z,1022.69
2023-04-19T08:19:40.237Z,1022.68
2023-04-19T08:20:40.222Z,1022.62
2023-04-19T08:21:41.522Z,1022.63
2023-04-19T08:22:40.362Z,1022.65
2023-04-19T08:23:48.046Z,1022.66
2023-04-19T08:24:40.257Z,1022.60
2023-04-19T08:25:40.211Z,1022.63
2023-04-19T08:26:40.303Z,1022.64
2023-04-19T08:27:40.385Z,1022.66
2023-04-19T08:28:40.209Z,1022.62
2023-04-19T08:29:40.214Z,1022.58
2023-04-19T08:30:40.278Z,1022.53
2023-04-19T08:31:40.214Z,1022.51
2023-04-19T08:32:40.268Z,1022.58
2023-04-19T08:33:40.248Z,1022.57
2023-04-19T08:34:40.192Z,1022.57
2023-04-19T08:35:40.234Z,1022.51
2023-04-19T08:36:45.901Z,1022.51
2023-04-19T08:37:40.240Z,1022.54
2023-04-19T08:38:40.894Z,1022.49
2023-04-19T08:39:40.435Z,1022.46
2023-04-19T08:40:40.210Z,1022.48
2023-04-19T08:41:40.260Z,1022.44
2023-04-19T08:42:40.260Z,1022.42
2023-04-19T08:43:41.644Z,1022.38
2023-04-19T08:44:50.992Z,1022.37
2023-04-19T08:45:40.243Z,1022.35
2023-04-19T08:46:40.361Z,1022.39
2023-04-19T08:48:40.323Z,1022.36
2023-04-19T08:49:42.733Z,1022.40
2023-04-19T08:50:51.949Z,1022.39
2023-04-19T08:51:40.208Z,1022.33
2023-04-19T08:53:40.236Z,1022.34
2023-04-19T08:54:40.190Z,1022.35
2023-04-19T08:55:47.327Z,1022.32
2023-04-19T08:56:40.209Z,1022.32
2023-04-19T08:57:40.327Z,1022.31
2023-04-19T08:58:57.926Z,1022.26
2023-04-19T08:59:40.189Z,1022.32
2023-04-19T09:00:40.185Z,1022.24
2023-04-19T09:01:41.618Z,1022.18
2023-04-19T09:02:40.585Z,1022.27
2023-04-19T09:03:55.445Z,1022.21
2023-04-19T09:04:40.558Z,1022.23
2023-04-19T09:05:40.728Z,1022.15
2023-04-19T09:06:40.421Z,1022.15
2023-04-19T09:07:40.232Z,1022.17
2023-04-19T09:08:40.181Z,1022.17
2023-04-19T09:09:55.420Z,1022.13
2023-04-19T09:10:40.238Z,1022.11
2023-04-19T09:11:40.213Z,1022.07
2023-04-19T09:12:40.167Z,1022.06
2023-04-19T09:13:40.173Z,1022.03
2023-04-19T09:14:43.080Z,1022.04
2023-04-19T09:15:40.235Z,1022.02
2023-04-19T09:16:40.201Z,1021.98
2023-04-19T09:17:40.271Z,1022.04
2023-04-19T09:18:53.389Z,1021.96
2023-04-19T09:19:40.149Z,1022.01
2023-04-19T09:20:40.183Z,1022.07
2023-04-19T09:21:40.169Z,1021.97
2023-04-19T09:22:40.163Z,1021.95
2023-04-19T09:23:40.167Z,1021.91
2023-04-19T09:25:02.515Z,1021.95
2023-04-19T09:26:05.973Z,1021.90
2023-04-19T09:28:12.828Z,1021.87
2023-04-19T09:29:13.886Z,1021.98
2023-04-19T09:30:24.165Z,1021.87
2023-04-19T09:31:33.337Z,1021.95
2023-04-19T09:32:13.054Z,1021.91
2023-04-19T09:33:12.923Z,1021.92
2023-04-19T09:34:12.925Z,1021.85
2023-04-19T09:35:12.769Z,1021.83
2023-04-19T09:36:14.622Z,1021.88
2023-04-19T09:37:17.932Z,1021.86
2023-04-19T09:38:12.762Z,1021.86
2023-04-19T09:39:12.843Z,1021.86
2023-04-19T09:40:12.742Z,1021.91
2023-04-19T09:41:12.768Z,1021.81
2023-04-19T09:42:12.836Z,1021.81
2023-04-19T09:44:50.198Z,1021.77
2023-04-19T09:45:29.262Z,1021.79
2023-04-19T09:46:12.784Z,1021.80
2023-04-19T09:47:12.872Z,1021.81
2023-04-19T09:48:12.840Z,1021.72
2023-04-19T09:49:23.220Z,1021.80
2023-04-19T09:50:22.887Z,1021.73
2023-04-19T09:51:14.587Z,1021.71
2023-04-19T09:52:12.746Z,1021.81
2023-04-19T09:53:12.739Z,1021.71
2023-04-19T09:54:12.743Z,1021.69
2023-04-19T09:55:24.567Z,1021.64
2023-04-19T09:56:12.789Z,1021.61
2023-04-19T09:57:12.768Z,1021.59
2023-04-19T09:58:12.752Z,1021.58
2023-04-19T09:59:20.256Z,1021.58
2023-04-19T10:00:12.743Z,1021.65
2023-04-19T10:01:15.600Z,1021.62
2023-04-19T10:02:12.941Z,1021.57
2023-04-19T10:13:30.602Z,1021.50
2023-04-19T10:16:19.017Z,1021.53
2023-04-19T10:16:30.601Z,1021.53
2023-04-19T10:17:30.574Z,1021.46
2023-04-19T10:18:30.580Z,1021.54
2023-04-19T10:19:30.532Z,1021.53
2023-04-19T10:20:30.531Z,1021.41
2023-04-19T10:21:30.561Z,1021.44
2023-04-19T10:22:30.523Z,1021.34
2023-04-19T10:23:30.527Z,1021.35
2023-04-19T10:24:30.537Z,1021.37
2023-04-19T10:25:30.530Z,1021.34
2023-04-19T10:26:30.693Z,1021.35
2023-04-19T10:27:30.563Z,1021.34
2023-04-19T10:28:30.594Z,1021.26
2023-04-19T10:29:30.573Z,1021.29
2023-04-19T10:30:30.568Z,1021.22
2023-04-19T10:31:30.624Z,1021.24
2023-04-19T10:32:31.393Z,1021.20
2023-04-19T10:33:30.560Z,1021.18
2023-04-19T10:34:30.546Z,1021.16
2023-04-19T10:35:30.530Z,1021.11
2023-04-19T10:36:30.538Z,1021.08
2023-04-19T10:37:30.527Z,1021.02
2023-04-19T10:38:30.535Z,1021.15
2023-04-19T10:39:30.529Z,1021.14
2023-04-19T10:40:30.528Z,1021.17
2023-04-19T10:41:30.570Z,1021.08
2023-04-19T10:42:30.554Z,1021.11
2023-04-19T10:43:30.530Z,1021.14
2023-04-19T10:44:30.561Z,1021.11
2023-04-19T10:45:30.607Z,1021.04
2023-04-19T10:46:30.674Z,1021.05
2023-04-19T10:47:30.643Z,1021.05
2023-04-19T10:48:30.594Z,1020.97
2023-04-19T10:49:30.555Z,1021.02
2023-04-19T10:50:30.546Z,1021.07
2023-04-19T10:51:30.557Z,1021.06
2023-04-19T10:52:30.584Z,1020.93
2023-04-19T10:53:30.542Z,1021.00
2023-04-19T10:54:30.611Z,1020.94
2023-04-19T10:55:30.548Z,1020.93
2023-04-19T10:56:30.606Z,1020.84
2023-04-19T10:57:30.552Z,1020.83
2023-04-19T10:58:30.549Z,1020.83
2023-04-19T10:59:30.781Z,1020.77
2023-04-19T11:00:30.595Z,1020.82
2023-04-19T11:01:30.595Z,1020.80
2023-04-19T11:02:30.784Z,1020.72
2023-04-19T11:03:30.738Z,1020.73
2023-04-19T11:04:30.687Z,1020.72
2023-04-19T11:05:30.691Z,1020.74
2023-04-19T11:06:30.619Z,1020.70
2023-04-19T11:07:30.610Z,1020.71
2023-04-19T11:08:30.594Z,1020.63
2023-04-19T11:09:30.604Z,1020.59
2023-04-19T11:10:30.589Z,1020.64
2023-04-19T11:11:30.610Z,1020.57
2023-04-19T11:12:30.597Z,1020.59
2023-04-19T11:13:30.619Z,1020.56
2023-04-19T11:14:30.658Z,1020.58
2023-04-19T11:15:30.864Z,1020.56
2023-04-19T11:16:44.497Z,1020.55
2023-04-19T11:17:30.752Z,1020.45
2023-04-19T11:18:30.671Z,1020.44
2023-04-19T11:19:30.713Z,1020.48
2023-04-19T11:20:30.636Z,1020.40
2023-04-19T11:21:30.657Z,1020.41
2023-04-19T11:22:30.619Z,1020.43
2023-04-19T11:23:30.616Z,1020.39
2023-04-19T11:24:30.609Z,1020.39
2023-04-19T11:25:30.611Z,1020.30
2023-04-19T11:26:30.661Z,1020.35
2023-04-19T11:27:30.640Z,1020.42
2023-04-19T11:28:30.616Z,1020.34
2023-04-19T11:29:30.633Z,1020.32
2023-04-19T11:30:30.650Z,1020.33
2023-04-19T11:31:30.653Z,1020.30
2023-04-19T11:32:30.680Z,1020.27
2023-04-19T11:33:31.394Z,1020.27
2023-04-19T11:34:30.657Z,1020.21
2023-04-19T11:35:30.685Z,1020.32
2023-04-19T11:36:30.663Z,1020.27
2023-04-19T11:37:30.714Z,1020.28
2023-04-19T11:38:30.654Z,1020.28
2023-04-19T11:39:30.678Z,1020.23
2023-04-19T11:40:30.659Z,1020.23
2023-04-19T11:41:30.666Z,1020.22
2023-04-19T11:42:30.700Z,1020.16
2023-04-19T11:43:30.696Z,1020.18
2023-04-19T11:44:30.689Z,1020.02
2023-04-19T11:45:32.550Z,1020.04
2023-04-19T11:46:30.707Z,1020.15
2023-04-19T11:47:30.716Z,1020.08
2023-04-19T11:48:30.701Z,1020.03
2023-04-19T11:49:30.709Z,1020.00
2023-04-19T11:50:30.744Z,1019.95
2023-04-19T11:51:30.720Z,1020.02
2023-04-19T11:52:30.702Z,1019.97
2023-04-19T11:53:30.752Z,1019.94
2023-04-19T11:54:30.757Z,1020.02
2023-04-19T11:55:30.747Z,1019.92
2023-04-19T11:56:30.759Z,1019.95
2023-04-19T11:57:30.721Z,1019.97
2023-04-19T11:58:30.746Z,1019.83
2023-04-19T11:59:30.770Z,1019.85
2023-04-19T12:00:30.752Z,1019.83
2023-04-19T12:01:30.757Z,1019.85
2023-04-19T12:02:30.809Z,1019.76
2023-04-19T12:03:30.995Z,1019.75
2023-04-19T12:04:30.865Z,1019.78
2023-04-19T12:05:30.939Z,1019.68
2023-04-19T12:06:30.789Z,1019.72
2023-04-19T12:07:30.819Z,1019.70
2023-04-19T12:08:30.810Z,1019.62
2023-04-19T12:09:30.785Z,1019.61
2023-04-19T12:10:30.793Z,1019.58
2023-04-19T12:11:30.817Z,1019.51
2023-04-19T12:12:30.800Z,1019.52
2023-04-19T12:13:30.825Z,1019.58
2023-04-19T12:14:30.831Z,1019.61
2023-04-19T12:15:30.831Z,1019.57
2023-04-19T12:16:30.830Z,1019.51
2023-04-19T12:17:30.910Z,1019.61
2023-04-19T12:18:30.857Z,1019.56
2023-04-19T12:19:30.873Z,1019.59
2023-04-19T12:20:30.851Z,1019.53
2023-04-19T12:21:30.971Z,1019.56
2023-04-19T12:22:30.874Z,1019.55
2023-04-19T12:23:30.847Z,1019.55
2023-04-19T12:24:30.878Z,1019.52
2023-04-19T12:25:30.866Z,1019.56
2023-04-19T12:26:30.906Z,1019.52
2023-04-19T12:27:30.873Z,1019.47
2023-04-19T12:28:30.892Z,1019.51
2023-04-19T12:29:30.910Z,1019.57
2023-04-19T12:30:30.922Z,1019.54
2023-04-19T12:31:30.883Z,1019.48
2023-04-19T12:32:30.901Z,1019.45
2023-04-19T12:33:30.944Z,1019.47
2023-04-19T12:34:30.943Z,1019.40
2023-04-19T12:35:30.924Z,1019.46
2023-04-19T12:36:30.909Z,1019.51
2023-04-19T12:37:30.932Z,1019.48
2023-04-19T12:38:30.994Z,1019.50
2023-04-19T12:39:30.954Z,1019.48
2023-04-19T12:40:30.953Z,1019.48
2023-04-19T12:41:30.976Z,1019.46
2023-04-19T12:42:30.952Z,1019.39
2023-04-19T12:43:30.952Z,1019.43
2023-04-19T12:44:30.974Z,1019.38
2023-04-19T12:45:31.358Z,1019.36
2023-04-19T12:46:31.146Z,1019.25
2023-04-19T12:47:31.061Z,1019.25
2023-04-19T12:48:30.987Z,1019.25
2023-04-19T12:49:31.003Z,1019.37
2023-04-19T12:50:31.066Z,1019.30
2023-04-19T12:51:31.108Z,1019.30
2023-04-19T12:55:36.204Z,1019.30
2023-04-19T12:56:36.145Z,1019.28
2023-04-19T12:57:36.170Z,1019.30
2023-04-19T12:58:36.171Z,1019.23
2023-04-19T12:59:36.168Z,1019.24
2023-04-19T13:00:36.163Z,1019.18
2023-04-19T13:01:36.265Z,1019.28
2023-04-19T13:02:36.289Z,1019.24
2023-04-19T13:03:36.440Z,1019.21
2023-04-19T13:04:36.269Z,1019.06
2023-04-19T13:05:36.197Z,1019.10
2023-04-19T13:06:36.209Z,1019.13
2023-04-19T13:07:36.237Z,1019.14
2023-04-19T13:08:44.626Z,1019.21
2023-04-19T13:09:36.245Z,1019.09
2023-04-19T13:10:36.233Z,1019.12
2023-04-19T13:11:36.260Z,1019.09
2023-04-19T13:12:36.268Z,1019.11
2023-04-19T13:13:36.257Z,1019.06
2023-04-19T13:14:36.292Z,1018.96
2023-04-19T13:15:36.318Z,1018.95
2023-04-19T13:16:36.297Z,1018.89
2023-04-19T13:17:36.349Z,1018.94
2023-04-19T13:18:36.318Z,1018.98
2023-04-19T13:19:36.399Z,1018.94
2023-04-19T13:20:36.334Z,1018.95
2023-04-19T13:21:36.325Z,1018.96
2023-04-19T13:22:36.338Z,1018.99
2023-04-19T13:23:36.345Z,1019.01
2023-04-19T13:24:36.419Z,1019.02
2023-04-19T13:25:36.356Z,1019.01
2023-04-19T13:26:36.409Z,1019.03
2023-04-19T13:27:36.403Z,1018.99
2023-04-19T13:28:36.393Z,1018.92
2023-04-19T13:29:36.433Z,1018.83
2023-04-19T13:30:36.404Z,1019.00
2023-04-19T13:31:36.502Z,1018.91
2023-04-19T13:32:36.430Z,1019.01
2023-04-19T13:33:36.403Z,1018.92
2023-04-19T13:34:36.420Z,1018.98
2023-04-19T13:35:36.490Z,1018.95
2023-04-19T13:36:36.430Z,1018.82
2023-04-19T13:37:36.460Z,1018.73
2023-04-19T13:38:36.472Z,1018.78
2023-04-19T13:39:36.478Z,1018.75
2023-04-19T13:40:36.490Z,1018.81
2023-04-19T13:41:36.528Z,1018.78
2023-04-19T13:42:36.493Z,1018.74
2023-04-19T13:43:36.560Z,1018.73
2023-04-19T13:44:36.560Z,1018.77
2023-04-19T13:45:36.532Z,1018.71
2023-04-19T13:46:36.589Z,1018.66
2023-04-19T13:47:36.682Z,1018.69
2023-04-19T13:48:36.533Z,1018.65
2023-04-19T13:49:36.544Z,1018.68
2023-04-19T13:50:36.564Z,1018.81
2023-04-19T13:51:46.943Z,1018.71
2023-04-19T13:52:36.599Z,1018.81
2023-04-19T13:53:36.592Z,1018.67
2023-04-19T13:54:36.590Z,1018.71
2023-04-19T13:55:36.589Z,1018.71
2023-04-19T13:56:36.606Z,1018.57
2023-04-19T13:57:36.627Z,1018.55
2023-04-19T13:58:36.634Z,1018.55
2023-04-19T13:59:36.673Z,1018.52
2023-04-19T14:00:36.668Z,1018.54
2023-04-19T14:01:36.636Z,1018.60
2023-04-19T14:02:36.781Z,1018.59
2023-04-19T14:03:36.886Z,1018.53
2023-04-19T14:04:36.796Z,1018.59
2023-04-19T14:05:36.677Z,1018.59
2023-04-19T14:06:36.713Z,1018.61
2023-04-19T14:07:36.710Z,1018.61
2023-04-19T14:08:36.695Z,1018.67
2023-04-19T14:09:36.731Z,1018.63
2023-04-19T14:10:36.727Z,1018.59
2023-04-19T14:11:36.726Z,1018.64
2023-04-19T14:12:36.750Z,1018.56
2023-04-19T14:13:36.752Z,1018.59
2023-04-19T14:14:36.767Z,1018.49
2023-04-19T14:15:36.783Z,1018.44
2023-04-19T14:16:36.845Z,1018.39
2023-04-19T14:17:36.817Z,1018.44
2023-04-19T14:18:36.805Z,1018.51
2023-04-19T14:19:36.814Z,1018.41
2023-04-19T14:20:36.803Z,1018.42
2023-04-19T14:21:36.838Z,1018.37
2023-04-19T14:22:36.811Z,1018.46
2023-04-19T14:23:36.835Z,1018.51
2023-04-19T14:24:36.844Z,1018.49
2023-04-19T14:25:36.868Z,1018.40
2023-04-19T14:26:36.856Z,1018.40
2023-04-19T14:27:36.863Z,1018.31
2023-04-19T14:28:36.869Z,1018.33
2023-04-19T14:29:36.879Z,1018.42
2023-04-19T14:30:36.889Z,1018.30
2023-04-19T14:31:37.006Z,1018.33
2023-04-19T14:32:36.964Z,1018.32
2023-04-19T14:33:36.903Z,1018.33
2023-04-19T14:34:36.916Z,1018.34
2023-04-19T14:35:36.946Z,1018.36
2023-04-19T14:36:36.974Z,1018.33
2023-04-19T14:37:36.940Z,1018.33
2023-04-19T14:38:36.940Z,1018.33
2023-04-19T14:39:36.993Z,1018.29
2023-04-19T14:40:36.996Z,1018.28
2023-04-19T14:41:36.988Z,1018.24
2023-04-19T14:42:36.976Z,1018.22
2023-04-19T14:43:37.034Z,1018.23
2023-04-19T14:44:37.015Z,1018.23
2023-04-19T14:45:37.039Z,1018.19
2023-04-19T14:46:37.047Z,1018.26
2023-04-19T14:47:37.080Z,1018.18
2023-04-19T14:48:37.046Z,1018.21
2023-04-19T14:49:37.064Z,1018.25
2023-04-19T14:50:37.110Z,1018.25
2023-04-19T14:51:37.052Z,1018.24
2023-04-19T14:52:37.071Z,1018.13
2023-04-19T14:53:37.085Z,1018.23
2023-04-19T14:54:37.139Z,1018.20
2023-04-19T14:55:37.122Z,1018.16
2023-04-19T14:56:37.109Z,1018.23
2023-04-19T14:57:37.089Z,1018.15
2023-04-19T14:58:37.143Z,1018.14
2023-04-19T14:59:37.122Z,1018.18
2023-04-19T15:00:37.225Z,1018.14
2023-04-19T15:01:37.201Z,1018.23
2023-04-19T15:02:37.193Z,1018.16
2023-04-19T15:03:37.435Z,1018.21
2023-04-19T15:04:40.592Z,1018.13
2023-04-19T15:05:37.239Z,1018.22
2023-04-19T15:06:37.240Z,1018.17
2023-04-19T15:07:37.194Z,1018.14
2023-04-19T15:08:37.177Z,1018.29
2023-04-19T15:09:37.248Z,1018.16
2023-04-19T15:10:38.404Z,1018.22
2023-04-19T15:11:37.260Z,1018.14
2023-04-19T15:12:37.217Z,1018.20
2023-04-19T15:13:37.214Z,1018.17
2023-04-19T15:14:37.223Z,1018.13
2023-04-19T15:15:37.288Z,1018.12
2023-04-19T15:16:37.297Z,1018.16
2023-04-19T15:17:37.283Z,1018.17
2023-04-19T15:18:37.288Z,1018.17
2023-04-19T15:19:37.284Z,1018.16
2023-04-19T15:20:37.258Z,1018.14
2023-04-19T15:21:37.261Z,1018.16
2023-04-19T15:22:37.263Z,1018.20
2023-04-19T15:23:37.259Z,1018.23
2023-04-19T15:24:37.260Z,1018.16
2023-04-19T15:25:37.324Z,1018.20
2023-04-19T15:26:37.300Z,1018.11
2023-04-19T15:27:37.305Z,1018.10
2023-04-19T15:28:37.281Z,1018.07
2023-04-19T15:29:37.287Z,1018.03
2023-04-19T15:30:37.321Z,1018.14
2023-04-19T15:31:37.436Z,1018.12
2023-04-19T15:32:37.346Z,1018.05
2023-04-19T15:33:37.302Z,1018.00
2023-04-19T15:34:37.311Z,1017.98
2023-04-19T15:35:37.353Z,1017.99
2023-04-19T15:36:37.324Z,1018.05
2023-04-19T15:37:37.358Z,1018.08
2023-04-19T15:38:37.340Z,1018.08
2023-04-19T15:39:37.334Z,1018.09
2023-04-19T15:40:37.360Z,1018.10
2023-04-19T15:41:37.367Z,1018.06
2023-04-19T15:42:37.329Z,1018.06
2023-04-19T15:43:37.338Z,1018.06
2023-04-19T15:44:37.371Z,1018.18
2023-04-19T15:45:37.363Z,1018.03
2023-04-19T15:46:37.433Z,1018.09
2023-04-19T15:47:37.455Z,1018.10
2023-04-19T15:48:37.363Z,1018.12
2023-04-19T15:49:37.372Z,1018.14
2023-04-19T15:50:37.383Z,1018.20
2023-04-19T15:51:37.390Z,1018.08
2023-04-19T15:52:37.395Z,1018.17
2023-04-19T15:53:37.380Z,1018.09
2023-04-19T15:54:37.422Z,1018.10
2023-04-19T15:55:37.393Z,1018.04
2023-04-19T15:56:37.394Z,1018.06
2023-04-19T15:57:37.432Z,1018.08
2023-04-19T15:58:37.420Z,1018.09
2023-04-19T15:59:37.394Z,1018.11
2023-04-19T16:00:37.376Z,1018.04
2023-04-19T16:12:36.439Z,1018.06
2023-04-19T16:13:36.409Z,1018.11
2023-04-19T16:14:36.391Z,1018.12
2023-04-19T16:15:36.402Z,1018.09
2023-04-19T16:16:36.424Z,1018.10
2023-04-19T16:17:36.454Z,1018.08
2023-04-19T16:18:36.394Z,1018.04
2023-04-19T16:19:36.368Z,1018.04
2023-04-19T16:20:36.415Z,1018.02
2023-04-19T16:21:36.387Z,1018.07
2023-04-19T16:22:36.385Z,1018.04
2023-04-19T16:23:36.412Z,1018.02
2023-04-19T16:24:36.371Z,1018.02
2023-04-19T16:25:36.377Z,1018.05
2023-04-19T16:26:36.374Z,1018.04
2023-04-19T16:27:36.379Z,1018.07
2023-04-19T16:28:36.438Z,1018.03
2023-04-19T16:29:36.371Z,1018.04
2023-04-19T16:30:36.393Z,1018.05
2023-04-19T16:31:36.394Z,1017.98
2023-04-19T16:32:36.383Z,1018.06
2023-04-19T16:33:36.360Z,1018.02
2023-04-19T16:34:36.375Z,1018.00
2023-04-19T16:35:36.396Z,1018.03
2023-04-19T16:36:36.374Z,1018.08
2023-04-19T16:37:36.371Z,1018.08
2023-04-19T16:38:36.367Z,1018.09